createdAt,value
2023-05-13T00:02:21.144Z,98066.94
2023-05-13T00:04:47.508Z,98057.53
2023-05-13T00:07:13.867Z,98069.53
2023-05-13T00:09:40.175Z,98063.00
2023-05-13T00:12:06.654Z,98069.63
2023-05-13T00:14:33.321Z,98073.84
2023-05-13T00:16:59.633Z,98068.94
2023-05-13T00:19:25.905Z,98063.28
2023-05-13T00:21:52.316Z,98062.16
2023-05-13T00:24:18.621Z,98067.94
2023-05-13T00:26:44.942Z,98068.09
2023-05-13T00:29:11.328Z,98068.00
2023-05-13T00:31:37.814Z,98067.91
2023-05-13T00:34:04.337Z,98064.91
2023-05-13T00:36:30.706Z,98070.72
2023-05-13T00:38:57.254Z,98074.91
2023-05-13T00:41:23.645Z,98076.66
2023-05-13T00:43:49.992Z,98066.03
2023-05-13T00:46:17.285Z,98078.88
2023-05-13T00:48:43.717Z,98080.97
2023-05-13T00:51:10.035Z,98082.47
2023-05-13T00:53:36.637Z,98076.25
2023-05-13T00:56:02.954Z,98074.25
2023-05-13T00:58:29.335Z,98073.34
2023-05-13T01:00:55.693Z,98069.53
2023-05-13T01:03:22.115Z,98074.53
2023-05-13T01:05:48.445Z,98080.50
2023-05-13T01:08:14.705Z,98076.47
2023-05-13T01:10:41.199Z,98079.59
2023-05-13T01:13:07.461Z,98074.13
2023-05-13T01:15:33.841Z,98078.09
2023-05-13T01:18:00.386Z,98078.53
2023-05-13T01:20:26.703Z,98085.84
2023-05-13T01:22:53.388Z,98093.84
2023-05-13T01:25:19.662Z,98085.75
2023-05-13T01:27:46.029Z,98086.41
2023-05-13T01:30:12.499Z,98094.06
2023-05-13T01:32:38.955Z,98083.06
2023-05-13T01:35:05.307Z,98093.34
2023-05-13T01:37:31.609Z,98091.41
2023-05-13T01:39:57.972Z,98093.94
2023-05-13T01:42:24.372Z,98098.56
2023-05-13T01:44:50.692Z,98104.00
2023-05-13T01:47:17.047Z,98096.69
2023-05-13T01:49:44.087Z,98099.00
2023-05-13T01:52:10.389Z,98097.38
2023-05-13T01:54:36.720Z,98090.41
2023-05-13T01:57:03.011Z,98096.78
2023-05-13T01:59:29.431Z,98088.22
2023-05-13T02:01:55.749Z,98091.94
2023-05-13T02:04:22.127Z,98087.06
2023-05-13T02:06:48.542Z,98093.88
2023-05-13T02:09:14.841Z,98092.94
2023-05-13T02:11:41.281Z,98097.09
2023-05-13T02:14:07.614Z,98097.53
2023-05-13T02:16:34.244Z,98104.94
2023-05-13T02:19:00.733Z,98106.22
2023-05-13T02:21:27.192Z,98107.47
2023-05-13T02:23:53.540Z,98100.16
2023-05-13T02:26:19.919Z,98112.84
2023-05-13T02:28:46.223Z,98107.19
2023-05-13T02:31:12.824Z,98109.25
2023-05-13T02:33:39.166Z,98110.50
2023-05-13T02:36:05.540Z,98111.78
2023-05-13T02:38:32.013Z,98110.59
2023-05-13T02:40:58.319Z,98111.88
2023-05-13T02:46:11.324Z,98111.16
2023-05-13T02:48:41.394Z,98112.63
2023-05-13T02:51:12.139Z,98115.72
2023-05-13T02:53:38.728Z,98110.84
2023-05-13T02:56:05.039Z,98115.38
2023-05-13T02:58:31.322Z,98117.06
2023-05-13T03:00:57.789Z,98113.22
2023-05-13T03:03:24.770Z,98119.00
2023-05-13T03:05:51.335Z,98116.78
2023-05-13T03:08:17.732Z,98116.97
2023-05-13T03:10:44.362Z,98114.78
2023-05-13T03:13:10.854Z,98109.09
2023-05-13T03:15:37.194Z,98105.47
2023-05-13T03:18:03.685Z,98109.63
2023-05-13T03:20:30.526Z,98111.91
2023-05-13T03:22:56.936Z,98109.69
2023-05-13T03:25:23.252Z,98110.13
2023-05-13T03:27:49.514Z,98119.56
2023-05-13T03:30:17.306Z,98122.88
2023-05-13T03:32:43.677Z,98126.78
2023-05-13T03:35:10.047Z,98125.16
2023-05-13T03:37:36.370Z,98129.06
2023-05-13T03:40:02.764Z,98127.44
2023-05-13T03:42:29.139Z,98134.59
2023-05-13T03:44:55.501Z,98132.63
2023-05-13T03:47:23.214Z,98131.41
2023-05-13T03:49:49.703Z,98135.31
2023-05-13T03:52:18.729Z,98137.38
2023-05-13T03:54:48.865Z,98141.25
2023-05-13T03:57:15.195Z,98134.56
2023-05-13T03:59:41.552Z,98136.59
2023-05-13T04:02:08.009Z,98132.31
2023-05-13T04:04:34.549Z,98136.22
2023-05-13T04:07:01.046Z,98131.38
2023-05-13T04:09:27.545Z,98137.09
2023-05-13T04:11:53.896Z,98132.44
2023-05-13T04:14:20.215Z,98131.84
2023-05-13T04:16:46.576Z,98137.97
2023-05-13T04:19:13.127Z,98144.91
2023-05-13T04:21:39.505Z,98149.13
2023-05-13T04:24:05.863Z,98155.34
2023-05-13T04:26:39.489Z,98157.25
2023-05-13T04:29:05.807Z,98159.97
2023-05-13T04:31:33.739Z,98158.75
2023-05-13T04:34:00.204Z,98164.06
2023-05-13T04:36:26.593Z,98159.25
2023-05-13T04:38:53.073Z,98156.50
2023-05-13T04:41:19.343Z,98164.28
2023-05-13T04:43:45.627Z,98158.38
2023-05-13T04:46:11.985Z,98160.22
2023-05-13T04:48:38.300Z,98162.09
2023-05-13T04:51:05.854Z,98166.34
2023-05-13T04:53:32.608Z,98166.75
2023-05-13T04:55:58.897Z,98170.16
2023-05-13T04:58:25.443Z,98170.63
2023-05-13T05:00:51.824Z,98185.13
2023-05-13T05:03:18.121Z,98187.94
2023-05-13T05:05:44.380Z,98182.75
2023-05-13T05:08:10.653Z,98190.72
2023-05-13T05:10:36.976Z,98192.59
2023-05-13T05:13:03.223Z,98195.09
2023-05-13T05:15:29.509Z,98191.41
2023-05-13T05:17:56.218Z,98191.47
2023-05-13T05:20:22.833Z,98197.88
2023-05-13T05:22:49.293Z,98198.72
2023-05-13T05:25:15.784Z,98204.88
2023-05-13T05:27:42.558Z,98205.72
2023-05-13T05:30:08.835Z,98202.69
2023-05-13T05:32:35.241Z,98205.19
2023-05-13T05:35:01.596Z,98212.94
2023-05-13T05:37:27.911Z,98211.22
2023-05-13T05:39:54.224Z,98211.22
2023-05-13T05:42:20.483Z,98201.38
2023-05-13T05:44:46.980Z,98194.66
2023-05-13T05:47:13.392Z,98207.72
2023-05-13T05:49:39.866Z,98217.09
2023-05-13T05:52:06.737Z,98218.25
2023-05-13T05:54:43.410Z,98215.19
2023-05-13T05:57:11.287Z,98217.69
2023-05-13T05:59:37.700Z,98219.00
2023-05-13T06:02:09.048Z,98222.19
2023-05-13T06:04:37.208Z,98223.53
2023-05-13T06:07:03.645Z,98207.19
2023-05-13T06:09:30.102Z,98220.25
2023-05-13T06:11:56.447Z,98207.38
2023-05-13T06:14:23.156Z,98191.41
2023-05-13T06:16:49.431Z,98213.69
2023-05-13T06:19:15.928Z,98212.84
2023-05-13T06:21:43.027Z,98210.63
2023-05-13T06:24:09.428Z,98205.75
2023-05-13T06:26:35.724Z,98211.53
2023-05-13T06:29:02.028Z,98211.75
2023-05-13T06:31:28.437Z,98214.59
2023-05-13T06:33:55.232Z,98207.78
2023-05-13T06:36:21.641Z,98205.25
2023-05-13T06:38:48.196Z,98209.72
2023-05-13T06:41:14.615Z,98215.22
2023-05-13T06:43:40.916Z,98215.94
2023-05-13T06:46:07.270Z,98224.66
2023-05-13T06:48:33.870Z,98226.94
2023-05-13T06:51:00.286Z,98223.28
2023-05-13T06:53:26.616Z,98213.19
2023-05-13T06:55:52.897Z,98222.69
2023-05-13T06:58:19.345Z,98225.81
2023-05-13T07:00:45.735Z,98219.97
2023-05-13T07:03:12.084Z,98229.16
2023-05-13T07:05:38.378Z,98228.16
2023-05-13T07:08:04.706Z,98227.09
2023-05-13T07:13:11.867Z,98230.56
2023-05-13T07:15:38.178Z,98221.69
2023-05-13T07:18:04.736Z,98227.56
2023-05-13T07:20:31.124Z,98226.44
2023-05-13T07:22:57.419Z,98238.78
2023-05-13T07:25:23.807Z,98254.09
2023-05-13T07:27:50.406Z,98270.16
2023-05-13T07:30:17.188Z,98283.78
2023-05-13T07:32:43.718Z,98306.91
2023-05-13T07:35:10.031Z,98318.66
2023-05-13T07:37:36.568Z,98335.78
2023-05-13T07:40:03.143Z,98349.16
2023-05-13T07:42:29.490Z,98363.03
2023-05-13T07:44:55.753Z,98384.22
2023-05-13T07:47:22.230Z,98395.88
2023-05-13T07:49:48.683Z,98415.94
2023-05-13T07:52:15.030Z,98433.28
2023-05-13T07:54:41.352Z,98442.00
2023-05-13T07:57:07.787Z,98442.84
2023-05-13T07:59:34.556Z,98457.75
2023-05-13T08:02:00.818Z,98468.34
2023-05-13T08:04:27.248Z,98478.88
2023-05-13T08:06:53.562Z,98458.47
2023-05-13T08:09:19.938Z,98487.16
2023-05-13T08:11:46.276Z,98498.22
2023-05-13T08:14:12.598Z,98507.66
2023-05-13T08:16:39.128Z,98522.16
2023-05-13T08:19:05.494Z,98532.09
2023-05-13T08:21:31.822Z,98531.72
2023-05-13T08:23:58.128Z,98425.25
2023-05-13T08:26:24.520Z,98353.66
2023-05-13T08:28:54.519Z,98336.75
2023-05-13T08:31:21.435Z,98296.56
2023-05-13T08:33:47.860Z,98224.97
2023-05-13T08:36:14.214Z,98218.50
2023-05-13T08:38:43.725Z,98308.13
2023-05-13T08:41:10.101Z,98476.81
2023-05-13T08:43:36.419Z,98536.56
2023-05-13T08:46:02.802Z,98482.03
2023-05-13T08:48:29.215Z,98485.41
2023-05-13T08:50:55.662Z,98488.56
2023-05-13T08:53:22.069Z,98450.91
2023-05-13T08:55:48.459Z,98348.66
2023-05-13T08:58:14.830Z,98201.00
2023-05-13T09:00:41.096Z,98153.81
2023-05-13T09:03:07.444Z,98145.16
2023-05-13T09:05:34.657Z,98142.97
2023-05-13T09:08:03.066Z,98147.97
2023-05-13T09:10:29.481Z,98151.22
2023-05-13T09:12:55.840Z,98146.13
2023-05-13T09:15:22.390Z,98149.94
2023-05-13T09:17:49.062Z,98144.53
2023-05-13T09:20:19.593Z,98153.72
2023-05-13T09:22:50.299Z,98147.53
2023-05-13T09:25:16.706Z,98156.94
2023-05-13T09:27:43.037Z,98157.66
2023-05-13T09:30:09.353Z,98161.91
2023-05-13T09:32:35.719Z,98156.78
2023-05-13T09:35:02.138Z,98157.59
2023-05-13T09:37:28.439Z,98149.84
2023-05-13T09:39:54.825Z,98141.31
2023-05-13T09:42:21.122Z,98138.69
2023-05-13T09:44:47.445Z,98136.63
2023-05-13T09:47:25.911Z,98133.47
2023-05-13T09:49:53.057Z,98120.63
2023-05-13T09:52:19.738Z,98131.00
2023-05-13T09:54:46.045Z,98132.22
2023-05-13T09:57:12.508Z,98134.94
2023-05-13T09:59:38.814Z,98128.00
2023-05-13T10:02:05.229Z,98134.00
2023-05-13T10:04:31.615Z,98130.78
2023-05-13T10:06:57.923Z,98131.59
2023-05-13T10:09:24.233Z,98139.47
2023-05-13T10:11:50.803Z,98138.06
2023-05-13T10:14:17.249Z,98124.78
2023-05-13T10:16:43.663Z,98134.44
2023-05-13T10:19:10.243Z,98126.84
2023-05-13T10:21:36.798Z,98117.19
2023-05-13T10:24:03.058Z,98120.47
2023-05-13T10:26:29.335Z,98114.84
2023-05-13T10:28:55.840Z,98125.16
2023-05-13T10:31:22.415Z,98119.50
2023-05-13T10:33:48.744Z,98120.38
2023-05-13T10:36:15.108Z,98126.06
2023-05-13T10:38:41.555Z,98122.34
2023-05-13T10:41:07.901Z,98125.56
2023-05-13T10:43:34.390Z,98121.25
2023-05-13T10:46:00.921Z,98117.44
2023-05-13T10:48:27.370Z,98115.78
2023-05-13T10:50:53.760Z,98123.28
2023-05-13T10:53:20.028Z,98125.44
2023-05-13T10:55:46.480Z,98121.09
2023-05-13T10:58:12.836Z,98122.28
2023-05-13T11:00:39.109Z,98126.13
2023-05-13T11:03:05.509Z,98126.78
2023-05-13T11:05:31.988Z,98121.22
2023-05-13T11:07:58.419Z,98121.56
2023-05-13T11:10:26.085Z,98115.69
2023-05-13T11:12:52.393Z,98124.94
2023-05-13T11:15:19.222Z,98119.91
2023-05-13T11:17:45.555Z,98120.75
2023-05-13T11:20:11.940Z,98118.03
2023-05-13T11:22:38.415Z,98122.38
2023-05-13T11:25:04.863Z,98115.78
2023-05-13T11:27:31.236Z,98110.91
2023-05-13T11:29:57.585Z,98121.69
2023-05-13T11:32:24.008Z,98112.78
2023-05-13T11:34:52.930Z,98129.53
2023-05-13T11:37:22.813Z,98116.59
2023-05-13T11:39:49.191Z,98101.28
2023-05-13T11:42:15.618Z,98102.66
2023-05-13T11:44:42.013Z,98099.13
2023-05-13T11:47:08.374Z,98101.84
2023-05-13T11:49:34.806Z,98098.63
2023-05-13T11:52:01.235Z,98107.81
2023-05-13T11:54:27.521Z,98084.63
2023-05-13T11:56:53.930Z,98102.19
2023-05-13T11:59:20.390Z,98090.06
2023-05-13T12:01:46.734Z,98091.44
2023-05-13T12:04:13.125Z,98083.34
2023-05-13T12:06:39.628Z,98096.63
2023-05-13T12:09:06.085Z,98078.84
2023-05-13T12:11:32.592Z,98073.81
2023-05-13T12:14:00.048Z,98080.38
2023-05-13T12:16:26.523Z,98070.13
2023-05-13T12:18:52.935Z,98082.31
2023-05-13T12:21:19.345Z,98075.84
2023-05-13T12:23:46.098Z,98091.22
2023-05-13T12:26:12.540Z,98083.44
2023-05-13T12:28:38.902Z,98079.41
2023-05-13T12:31:05.267Z,98079.69
2023-05-13T12:33:31.636Z,98081.59
2023-05-13T12:35:58.093Z,98077.56
2023-05-13T12:38:24.445Z,98080.00
2023-05-13T12:40:50.754Z,98088.09
2023-05-13T12:43:17.217Z,98080.28
2023-05-13T12:45:44.876Z,98077.34
2023-05-13T12:48:11.537Z,98069.53
2023-05-13T12:50:38.002Z,98075.22
2023-05-13T12:53:07.810Z,98083.59
2023-05-13T12:55:34.186Z,98084.44
2023-05-13T12:58:00.628Z,98080.97
2023-05-13T13:00:27.040Z,98066.47
2023-05-13T13:02:53.559Z,98077.25
2023-05-13T13:05:20.185Z,98083.19
2023-05-13T13:07:46.858Z,98066.72
2023-05-13T13:10:13.152Z,98070.19
2023-05-13T13:12:39.433Z,98069.44
2023-05-13T13:15:05.882Z,98066.81
2023-05-13T13:17:32.288Z,98074.59
2023-05-13T13:19:58.848Z,98075.91
2023-05-13T13:22:25.182Z,98077.84
2023-05-13T13:24:51.523Z,98071.91
2023-05-13T13:27:18.009Z,98061.97
2023-05-13T13:29:44.325Z,98077.34
2023-05-13T13:32:10.707Z,98071.97
2023-05-13T13:34:37.089Z,98068.44
2023-05-13T13:37:03.803Z,98070.63
2023-05-13T13:39:30.297Z,98063.38
2023-05-13T13:41:56.779Z,98057.22
2023-05-13T13:44:24.268Z,98067.16
2023-05-13T13:46:52.542Z,98057.22
2023-05-13T13:49:23.574Z,98062.91
2023-05-13T13:51:50.423Z,98063.44
2023-05-13T13:54:16.834Z,98065.13
2023-05-13T13:56:43.183Z,98055.97
2023-05-13T13:59:09.556Z,98060.84
2023-05-13T14:01:35.912Z,98064.09
2023-05-13T14:04:02.320Z,98054.94
2023-05-13T14:06:28.759Z,98055.50
2023-05-13T14:08:55.121Z,98053.38
2023-05-13T14:11:21.438Z,98059.28
2023-05-13T14:13:47.996Z,98057.16
2023-05-13T14:16:14.426Z,98054.50
2023-05-13T14:18:40.871Z,98055.06
2023-05-13T14:21:07.337Z,98055.88
2023-05-13T14:23:38.208Z,98059.97
2023-05-13T14:26:09.696Z,98056.75
2023-05-13T14:31:02.972Z,98060.53
2023-05-13T14:33:29.319Z,98064.59
2023-05-13T14:35:55.682Z,98055.19
2023-05-13T14:38:22.007Z,98057.34
2023-05-13T14:40:48.485Z,98048.72
2023-05-13T14:46:08.564Z,98057.66
2023-05-13T14:48:37.770Z,98062.50
2023-05-13T14:51:04.052Z,98057.41
2023-05-13T14:53:30.386Z,98056.34
2023-05-13T14:55:56.679Z,98057.44
2023-05-13T14:58:23.009Z,98044.25
2023-05-13T15:00:49.537Z,98046.13
2023-05-13T15:03:15.959Z,98046.41
2023-05-13T15:05:44.032Z,98039.94
2023-05-13T15:08:10.828Z,98036.97
2023-05-13T15:10:37.076Z,98039.13
2023-05-13T15:13:03.442Z,98047.75
2023-05-13T15:15:29.684Z,98037.25
2023-05-13T15:17:56.031Z,98042.13
2023-05-13T15:20:22.868Z,98045.06
2023-05-13T15:22:49.411Z,98045.63
2023-05-13T15:25:15.730Z,98042.41
2023-05-13T15:27:43.040Z,98034.84
2023-05-13T15:30:11.057Z,98044.03
2023-05-13T15:32:37.726Z,98035.41
2023-05-13T15:35:04.299Z,98034.31
2023-05-13T15:37:30.593Z,98034.31
2023-05-13T15:42:53.295Z,98029.75
2023-05-13T15:45:19.743Z,98021.94
2023-05-13T15:47:46.292Z,98026.78
2023-05-13T15:50:13.020Z,98035.94
2023-05-13T15:52:39.368Z,98029.19
2023-05-13T15:55:05.900Z,98027.84
2023-05-13T15:57:32.327Z,98033.50
2023-05-13T15:59:58.653Z,98043.47
2023-05-13T16:02:25.047Z,98031.88
2023-05-13T16:04:51.511Z,98035.38
2023-05-13T16:07:17.800Z,98021.94
2023-05-13T16:09:44.188Z,98020.03
2023-05-13T16:12:10.478Z,98016.53
2023-05-13T16:14:36.797Z,98013.56
2023-05-13T16:17:03.472Z,98014.38
2023-05-13T16:19:29.775Z,98023.00
2023-05-13T16:21:56.098Z,98015.69
2023-05-13T16:24:22.498Z,98018.38
2023-05-13T16:26:48.895Z,98020.28
2023-05-13T16:29:15.375Z,98019.47
2023-05-13T16:31:41.893Z,98009.81
2023-05-13T16:34:08.248Z,98012.75
2023-05-13T16:36:34.547Z,98017.34
2023-05-13T16:39:00.871Z,98020.84
2023-05-13T16:41:27.206Z,98013.03
2023-05-13T16:43:53.497Z,98017.63
2023-05-13T16:46:19.902Z,98030.56
2023-05-13T16:48:46.285Z,98029.75
2023-05-13T16:51:12.605Z,98013.84
2023-05-13T16:53:38.968Z,98029.19
2023-05-13T16:56:05.279Z,98029.47
2023-05-13T16:58:32.310Z,98028.94
2023-05-13T17:00:59.497Z,98031.91
2023-05-13T17:03:26.188Z,98033.78
2023-05-13T17:05:52.553Z,98023.28
2023-05-13T17:08:18.903Z,98028.16
2023-05-13T17:10:45.254Z,98030.06
2023-05-13T17:13:11.676Z,98026.81
2023-05-13T17:15:38.030Z,98027.09
2023-05-13T17:18:04.886Z,98032.78
2023-05-13T17:20:31.292Z,98031.16
2023-05-13T17:22:57.672Z,98026.84
2023-05-13T17:25:24.023Z,98030.06
2023-05-13T17:27:50.489Z,98025.78
2023-05-13T17:30:16.816Z,98024.19
2023-05-13T17:32:43.141Z,98030.63
2023-05-13T17:35:09.435Z,98023.94
2023-05-13T17:37:35.780Z,98029.56
2023-05-13T17:40:02.088Z,98032.25
2023-05-13T17:42:28.471Z,98024.75
2023-05-13T17:44:54.888Z,98031.22
2023-05-13T17:47:21.189Z,98026.13
2023-05-13T17:49:47.486Z,98021.78
2023-05-13T17:52:13.770Z,98028.25
2023-05-13T17:54:40.024Z,98028.53
2023-05-13T17:57:06.588Z,98029.59
2023-05-13T17:59:32.914Z,98043.34
2023-05-13T18:02:00.595Z,98049.00
2023-05-13T18:04:27.160Z,98058.41
2023-05-13T18:06:53.711Z,98064.06
2023-05-13T18:09:22.898Z,98068.91
2023-05-13T18:11:51.424Z,98069.19
2023-05-13T18:14:17.780Z,98064.06
2023-05-13T18:16:44.185Z,98082.38
2023-05-13T18:19:10.838Z,98079.94
2023-05-13T18:21:37.367Z,98081.31
2023-05-13T18:24:03.695Z,98078.09
2023-05-13T18:26:29.976Z,98079.97
2023-05-13T18:28:56.292Z,98080.25
2023-05-13T18:31:22.816Z,98078.88
2023-05-13T18:33:49.237Z,98076.47
2023-05-13T18:36:15.561Z,98081.31
2023-05-13T18:38:41.877Z,98079.72
2023-05-13T18:41:08.151Z,98085.38
2023-05-13T18:43:34.557Z,98089.38
2023-05-13T18:46:00.902Z,98086.94
2023-05-13T18:48:27.220Z,98087.50
2023-05-13T18:50:56.353Z,98088.81
2023-05-13T18:53:22.829Z,98094.19
2023-05-13T18:55:49.072Z,98085.09
2023-05-13T18:58:15.308Z,98091.25
2023-05-13T19:00:41.613Z,98093.66
2023-05-13T19:03:08.037Z,98093.13
2023-05-13T19:05:34.691Z,98104.44
2023-05-13T19:08:00.982Z,98108.44
2023-05-13T19:10:27.250Z,98104.44
2023-05-13T19:12:53.574Z,98117.31
2023-05-13T19:15:19.909Z,98115.19
2023-05-13T19:17:46.238Z,98114.63
2023-05-13T19:20:12.665Z,98115.97
2023-05-13T19:22:38.973Z,98110.06
2023-05-13T19:25:05.301Z,98112.22
2023-05-13T19:27:31.613Z,98112.72
2023-05-13T19:29:57.941Z,98120.28
2023-05-13T19:32:24.370Z,98120.78
2023-05-13T19:34:50.724Z,98118.38
2023-05-13T19:37:17.013Z,98125.09
2023-05-13T19:39:43.249Z,98118.38
2023-05-13T19:42:09.578Z,98117.81
2023-05-13T19:44:35.837Z,98116.75
2023-05-13T19:47:02.318Z,98120.50
2023-05-13T19:49:28.886Z,98118.91
2023-05-13T19:51:55.201Z,98118.09
2023-05-13T19:54:21.437Z,98114.03
2023-05-13T19:56:47.714Z,98111.63
2023-05-13T19:59:14.205Z,98111.88
2023-05-13T20:01:40.598Z,98104.91
2023-05-13T20:04:07.118Z,98105.19
2023-05-13T20:06:33.698Z,98106.47
2023-05-13T20:08:59.947Z,98104.88
2023-05-13T20:11:26.247Z,98110.50
2023-05-13T20:13:52.540Z,98106.19
2023-05-13T20:16:18.838Z,98111.84
2023-05-13T20:18:45.285Z,98122.03
2023-05-13T20:21:12.534Z,98100.00
2023-05-13T20:23:38.849Z,98109.16
2023-05-13T20:26:05.110Z,98115.06
2023-05-13T20:28:31.526Z,98115.28
2023-05-13T20:30:57.827Z,98122.84
2023-05-13T20:33:24.148Z,98121.19
2023-05-13T20:35:50.407Z,98123.34
2023-05-13T20:38:16.676Z,98123.59
2023-05-13T20:40:43.243Z,98127.38
2023-05-13T20:43:09.542Z,98126.00
2023-05-13T20:45:35.928Z,98125.19
2023-05-13T20:48:02.319Z,98128.41
2023-05-13T20:50:31.751Z,98131.09
2023-05-13T20:52:58.102Z,98127.06
2023-05-13T20:55:24.412Z,98131.91
2023-05-13T20:57:50.727Z,98125.16
2023-05-13T21:00:17.010Z,98127.03
2023-05-13T21:02:43.318Z,98129.97
2023-05-13T21:05:09.641Z,98124.06
2023-05-13T21:07:35.927Z,98127.81
2023-05-13T21:10:02.223Z,98124.59
2023-05-13T21:12:28.555Z,98114.09
2023-05-13T21:14:57.266Z,98119.75
2023-05-13T21:17:23.973Z,98121.06
2023-05-13T21:19:50.256Z,98122.97
2023-05-13T21:22:16.676Z,98122.41
2023-05-13T21:24:43.030Z,98126.16
2023-05-13T21:27:09.359Z,98120.28
2023-05-13T21:29:35.741Z,98122.41
2023-05-13T21:32:05.372Z,98124.53
2023-05-13T21:34:31.924Z,98121.03
2023-05-13T21:36:58.643Z,98124.00
2023-05-13T21:39:27.583Z,98120.75
2023-05-13T21:41:54.055Z,98119.16
2023-05-13T21:44:20.343Z,98119.91
2023-05-13T21:46:46.686Z,98124.69
2023-05-13T21:49:13.111Z,98119.00
2023-05-13T21:51:39.718Z,98117.84
2023-05-13T21:54:06.060Z,98122.63
2023-05-13T21:56:32.518Z,98120.13
2023-05-13T21:58:58.800Z,98125.69
2023-05-13T22:01:27.588Z,98122.13
2023-05-13T22:03:54.337Z,98117.22
2023-05-13T22:06:29.792Z,98127.56
2023-05-13T22:08:57.028Z,98126.13
2023-05-13T22:11:23.406Z,98123.13
2023-05-13T22:13:50.343Z,98125.19
2023-05-13T22:16:24.046Z,98118.69
2023-05-13T22:18:50.769Z,98118.63
2023-05-13T22:21:17.204Z,98120.72
2023-05-13T22:23:43.484Z,98118.22
2023-05-13T22:26:09.774Z,98115.75
2023-05-13T22:28:36.013Z,98121.03
2023-05-13T22:31:02.310Z,98123.09
2023-05-13T22:33:28.777Z,98126.78
2023-05-13T22:35:55.054Z,98122.66
2023-05-13T22:38:21.578Z,98117.47
2023-05-13T22:40:47.854Z,98120.09
2023-05-13T22:43:14.114Z,98130.16
2023-05-13T22:45:40.423Z,98122.56
2023-05-13T22:48:06.796Z,98115.00
2023-05-13T22:50:33.259Z,98122.38
2023-05-13T22:52:59.574Z,98116.41
2023-05-13T22:55:25.886Z,98116.34
2023-05-13T22:57:52.269Z,98107.69
2023-05-13T23:00:18.560Z,98107.03
2023-05-13T23:02:44.856Z,98115.78
2023-05-13T23:05:14.260Z,98108.75
2023-05-13T23:07:40.632Z,98105.19
2023-05-13T23:10:07.044Z,98107.19
2023-05-13T23:12:33.615Z,98109.78
2023-05-13T23:15:00.105Z,98118.50
2023-05-13T23:17:26.652Z,98110.44
2023-05-13T23:19:52.970Z,98118.38
2023-05-13T23:22:19.308Z,98119.09
2023-05-13T23:24:45.623Z,98117.97
2023-05-13T23:27:11.981Z,98104.91
2023-05-13T23:29:38.429Z,98125.00
2023-05-13T23:32:06.577Z,98109.69
2023-05-13T23:34:33.347Z,98121.09
2023-05-13T23:37:00.169Z,98115.41
2023-05-13T23:39:26.536Z,98113.72
2023-05-13T23:41:52.811Z,98128.00
2023-05-13T23:44:19.411Z,98117.72
2023-05-13T23:46:46.388Z,98114.16
2023-05-13T23:49:12.648Z,98114.06
2023-05-13T23:51:38.947Z,98116.63
2023-05-13T23:54:05.333Z,98114.63
2023-05-13T23:56:31.684Z,98115.38
2023-05-13T23:58:58.089Z,98116.88
